Time;durP1;ratioP1;P1;durP2;ratioP2;P2;SDS_P1;SDS_P2;PMS_P1;PMS_P2;Temp;Humidity;BMP_temperature;BMP_pressure;BME280_temperature;BME280_humidity;BME280_pressure;Samples;Min_cycle;Max_cycle;Signal;HPM_P1;HPM_P2
2021/11/30 00:00:14;;;;;;;8.52;5.00;;;;;;;-0.93;100.00;96667.59;4939278;28;20053;-61
2021/11/30 00:02:39;;;;;;;7.03;4.57;;;;;;;-0.93;100.00;96653.38;4961698;28;20035;-64
2021/11/30 00:05:06;;;;;;;7.07;4.60;;;;;;;-0.91;100.00;96662.72;4955815;28;20109;-62
2021/11/30 00:07:33;;;;;;;17.45;4.85;;;;;;;-0.92;100.00;96671.88;4941410;28;20438;-63
2021/11/30 00:12:36;;;;;;;7.65;4.05;;;;;;;-0.81;100.00;96676.03;4964616;28;20123;-63
2021/11/30 00:15:02;;;;;;;7.45;4.95;;;;;;;-0.80;100.00;96676.81;4964004;28;20477;-63
2021/11/30 00:17:28;;;;;;;11.18;5.47;;;;;;;-0.83;100.00;96686.28;4961153;28;20075;-64
2021/11/30 00:19:54;;;;;;;12.15;5.32;;;;;;;-0.68;100.00;96695.19;4962346;28;20078;-63
2021/11/30 00:22:22;;;;;;;9.80;5.15;;;;;;;-0.84;100.00;96686.56;4951856;28;20410;-64
2021/11/30 00:24:49;;;;;;;8.30;4.70;;;;;;;-0.77;100.00;96697.75;4963825;28;20050;-63
2021/11/30 00:27:16;;;;;;;8.38;4.82;;;;;;;-0.77;100.00;96689.69;4958573;28;20122;-64
2021/11/30 00:29:42;;;;;;;6.82;4.40;;;;;;;-0.78;100.00;96690.75;4965686;28;20093;-63
2021/11/30 00:32:08;;;;;;;8.85;4.75;;;;;;;-0.78;100.00;96686.16;4960565;28;20046;-62
2021/11/30 00:34:34;;;;;;;8.02;4.90;;;;;;;-0.78;100.00;96693.44;4958265;28;20047;-63
2021/11/30 00:36:59;;;;;;;9.40;5.10;;;;;;;-0.76;100.00;96693.94;4962228;28;20053;-63
2021/11/30 00:39:25;;;;;;;12.73;4.60;;;;;;;-0.60;100.00;96702.56;4958888;28;20440;-64
2021/11/30 00:41:54;;;;;;;7.85;5.13;;;;;;;-0.64;100.00;96704.25;4963863;28;20464;-64
2021/11/30 00:44:21;;;;;;;6.43;4.25;;;;;;;-0.61;100.00;96701.00;4951410;28;20490;-64
2021/11/30 00:46:49;;;;;;;6.88;3.95;;;;;;;-0.60;100.00;96702.56;4953686;28;20488;-64
2021/11/30 00:49:15;;;;;;;10.25;4.70;;;;;;;-0.69;100.00;96691.69;4947885;28;20439;-64
2021/11/30 00:51:43;;;;;;;6.78;4.22;;;;;;;-0.72;100.00;96707.63;4936168;28;20059;-64
2021/11/30 00:54:10;;;;;;;7.68;3.95;;;;;;;-0.72;100.00;96704.91;4953547;28;20573;-64
2021/11/30 00:56:37;;;;;;;7.20;4.15;;;;;;;-0.70;100.00;96702.72;4953713;28;20042;-66
2021/11/30 00:59:03;;;;;;;6.60;4.63;;;;;;;-0.79;100.00;96702.63;4951471;28;20043;-62
2021/11/30 01:01:30;;;;;;;10.00;4.28;;;;;;;-0.70;100.00;96703.56;4951093;28;20049;-64
2021/11/30 01:03:56;;;;;;;8.90;4.50;;;;;;;-0.56;100.00;96705.47;4952751;28;20036;-66
2021/11/30 01:06:22;;;;;;;10.85;4.93;;;;;;;-0.70;100.00;96711.63;4949332;28;20130;-63
2021/11/30 01:08:47;;;;;;;9.57;4.38;;;;;;;-0.61;100.00;96717.94;4950737;28;20050;-63
2021/11/30 01:11:12;;;;;;;7.32;4.20;;;;;;;-0.69;100.00;96710.50;4951092;28;20054;-65
2021/11/30 01:13:38;;;;;;;7.45;4.28;;;;;;;-0.69;100.00;96717.78;4953756;28;20073;-65
2021/11/30 01:16:04;;;;;;;9.75;4.55;;;;;;;-0.63;100.00;96714.75;4950215;28;20049;-64
2021/11/30 01:18:29;;;;;;;9.00;3.50;;;;;;;-0.61;100.00;96720.63;4953315;28;20109;-65
2021/11/30 01:20:55;;;;;;;9.45;4.32;;;;;;;-0.62;100.00;96740.53;4956565;28;20047;-65
2021/11/30 01:23:20;;;;;;;7.40;3.80;;;;;;;-0.54;100.00;96739.09;4935756;28;20455;-66
2021/11/30 01:25:46;;;;;;;7.88;3.58;;;;;;;-0.60;100.00;96740.25;4954736;28;20027;-65
2021/11/30 01:28:12;;;;;;;5.88;3.33;;;;;;;-0.45;100.00;96745.38;4952279;28;20496;-65
2021/11/30 01:30:37;;;;;;;8.27;4.05;;;;;;;-0.59;100.00;96737.25;4919888;28;20058;-63
2021/11/30 01:33:05;;;;;;;9.30;3.90;;;;;;;-0.63;100.00;96733.56;4952924;28;20039;-62
2021/11/30 01:35:32;;;;;;;7.43;3.97;;;;;;;-0.62;100.00;96735.16;4955636;28;20073;-64
2021/11/30 01:37:57;;;;;;;6.60;3.30;;;;;;;-0.62;100.00;96742.44;4961621;28;20060;-64
2021/11/30 01:40:25;;;;;;;7.75;3.22;;;;;;;-0.56;100.00;96743.94;4952029;28;20101;-64
2021/11/30 01:42:52;;;;;;;6.80;3.50;;;;;;;-0.60;100.00;96749.09;4954450;28;20373;-63
2021/11/30 01:50:33;;;;;;;9.10;3.72;;;;;;;-0.55;100.00;96759.00;4955991;28;20043;-64
2021/11/30 01:52:59;;;;;;;7.35;3.67;;;;;;;-0.57;100.00;96755.81;4950831;28;20047;-65
2021/11/30 01:55:24;;;;;;;6.82;3.20;;;;;;;-0.60;100.00;96770.63;4948485;28;20093;-64
2021/11/30 01:57:54;;;;;;;10.20;4.03;;;;;;;-0.55;100.00;96763.59;4962758;28;20099;-64
2021/11/30 02:00:21;;;;;;;;;;;;;;;-0.57;100.00;96758.50;4960649;28;20085;-63
2021/11/30 02:02:47;;;;;;;7.90;3.90;;;;;;;-0.54;100.00;96760.59;4952520;28;19918;-62
2021/11/30 02:05:13;;;;;;;6.53;3.22;;;;;;;-0.57;100.00;96753.13;4944385;28;20566;-63
2021/11/30 02:07:40;;;;;;;6.95;3.65;;;;;;;-0.55;100.00;96748.22;4948553;28;20070;-62
2021/11/30 02:10:08;;;;;;;8.50;3.50;;;;;;;-0.58;100.00;96754.19;4946765;28;20043;-61
2021/11/30 02:12:36;;;;;;;7.75;3.60;;;;;;;-0.55;100.00;96769.75;4960014;28;20039;-62
2021/11/30 02:15:03;;;;;;;8.40;3.60;;;;;;;-0.55;100.00;96752.81;4973213;28;20046;-64
2021/11/30 02:17:29;;;;;;;7.78;3.78;;;;;;;-0.57;100.00;96763.09;4950939;28;20121;-64
2021/11/30 02:19:57;;;;;;;7.65;3.83;;;;;;;-0.53;100.00;96772.16;4946710;28;21679;-61
2021/11/30 02:22:24;;;;;;;11.45;3.28;;;;;;;-0.58;100.00;96764.97;4949384;28;20625;-63
2021/11/30 02:24:50;;;;;;;7.07;3.38;;;;;;;-0.55;100.00;96745.53;4937445;28;20035;-62
2021/11/30 02:27:15;;;;;;;8.27;3.58;;;;;;;-0.50;100.00;96748.16;4949035;28;20030;-62
2021/11/30 02:29:41;;;;;;;33.60;14.70;;;;;;;-0.53;100.00;96759.50;4952138;28;20480;-61
2021/11/30 02:32:07;;;;;;;6.93;4.05;;;;;;;-0.49;100.00;96757.03;4946227;28;20053;-64
2021/11/30 02:34:32;;;;;;;14.05;4.50;;;;;;;-0.55;100.00;96750.13;4963021;28;20105;-64
2021/11/30 02:37:11;;;;;;;7.28;3.10;;;;;;;-0.52;100.00;96766.50;4948876;28;20062;-65
2021/11/30 02:39:37;;;;;;;6.38;3.42;;;;;;;-0.54;100.00;96766.00;4952501;28;20043;-65
2021/11/30 02:42:07;;;;;;;8.13;3.60;;;;;;;-0.51;100.00;96770.75;4953004;28;20495;-66
2021/11/30 02:44:35;;;;;;;8.73;3.65;;;;;;;-0.52;100.00;96784.50;4951633;28;20047;-65
2021/11/30 02:47:10;;;;;;;6.55;3.30;;;;;;;-0.50;100.00;96771.59;4920792;28;20519;-65
2021/11/30 02:49:38;;;;;;;8.38;3.58;;;;;;;-0.46;100.00;96770.69;4912491;28;20051;-64
2021/11/30 02:52:09;;;;;;;9.13;2.55;;;;;;;-0.44;100.00;96773.88;4931521;28;20081;-63
2021/11/30 02:54:41;;;;;;;6.82;3.35;;;;;;;-0.44;100.00;96779.25;4935784;28;20042;-64
2021/11/30 02:57:08;;;;;;;8.85;3.38;;;;;;;-0.36;100.00;96767.06;4976826;28;20038;-64
2021/11/30 02:59:39;;;;;;;12.45;3.40;;;;;;;-0.42;100.00;96769.00;4967584;28;20039;-63
2021/11/30 03:02:16;;;;;;;4.53;2.85;;;;;;;-0.46;100.00;96775.28;4946749;28;20125;-64
2021/11/30 03:04:46;;;;;;;6.53;3.17;;;;;;;-0.57;100.00;96776.53;4955763;28;20039;-64
2021/11/30 03:07:13;;;;;;;6.75;3.30;;;;;;;-0.56;100.00;96778.91;4958763;23;20573;-61
2021/11/30 03:09:40;;;;;;;6.22;3.20;;;;;;;-0.45;100.00;96766.09;4945235;28;20059;-60
2021/11/30 03:12:07;;;;;;;5.18;2.95;;;;;;;-0.46;100.00;96777.97;4947440;28;20101;-60
2021/11/30 03:14:33;;;;;;;4.80;3.15;;;;;;;-0.46;99.81;96792.22;4951301;28;20039;-61
2021/11/30 03:16:59;;;;;;;10.13;4.57;;;;;;;-0.42;99.73;96782.44;4949658;28;20105;-59
2021/11/30 03:19:26;;;;;;;5.47;2.97;;;;;;;-0.40;99.93;96788.38;4938820;29;20508;-62
2021/11/30 03:21:52;;;;;;;8.88;3.13;;;;;;;-0.42;99.60;96787.84;4940726;29;20051;-63
2021/11/30 03:24:18;;;;;;;11.45;2.72;;;;;;;-0.36;98.47;96790.44;4936683;29;20432;-63
2021/11/30 03:26:44;;;;;;;5.55;2.85;;;;;;;-0.30;98.61;96795.47;4949165;28;20042;-62
2021/11/30 03:29:09;;;;;;;6.20;2.40;;;;;;;-0.35;99.34;96787.47;4945572;28;20130;-60
2021/11/30 03:34:22;;;;;;;6.38;3.08;;;;;;;-0.31;98.46;96796.53;4930185;29;20460;-62
2021/11/30 03:36:52;;;;;;;4.05;2.58;;;;;;;-0.31;97.29;96806.53;4949996;28;20090;-61
2021/11/30 03:39:21;;;;;;;6.95;3.13;;;;;;;-0.30;97.43;96818.91;4939543;28;20713;-61
2021/11/30 03:41:48;;;;;;;5.72;2.70;;;;;;;-0.34;98.62;96818.69;4953869;28;20522;-61
2021/11/30 03:44:15;;;;;;;4.63;3.40;;;;;;;-0.26;97.87;96822.59;4939903;28;20102;-61
2021/11/30 03:46:41;;;;;;;5.57;2.95;;;;;;;-0.24;97.03;96810.44;4923381;29;20086;-62
2021/11/30 03:49:09;;;;;;;5.72;3.10;;;;;;;-0.28;97.52;96812.13;4913796;29;20062;-61
2021/11/30 03:51:35;;;;;;;7.18;3.05;;;;;;;-0.28;96.90;96814.81;4939955;29;20117;-61
2021/11/30 03:54:00;;;;;;;6.90;2.80;;;;;;;-0.22;96.65;96820.91;4941846;28;20655;-61
2021/11/30 03:56:26;;;;;;;4.10;2.55;;;;;;;-0.21;96.43;96825.22;4954314;28;20039;-60
2021/11/30 03:58:53;;;;;;;8.68;3.33;;;;;;;-0.27;97.42;96835.25;4932450;28;20085;-58
2021/11/30 04:01:19;;;;;;;5.10;2.83;;;;;;;-0.23;96.64;96848.94;4941616;28;20143;-61
2021/11/30 04:03:45;;;;;;;4.03;2.75;;;;;;;-0.21;96.33;96839.47;4940926;29;20043;-61
2021/11/30 04:06:10;;;;;;;4.22;2.67;;;;;;;-0.29;95.64;96832.06;4938536;28;20488;-60
2021/11/30 04:08:38;;;;;;;4.65;2.45;;;;;;;-0.16;94.52;96827.00;4948860;28;20040;-60
2021/11/30 04:11:04;;;;;;;4.80;2.45;;;;;;;-0.16;94.18;96833.22;4934619;28;20051;-61
2021/11/30 04:13:30;;;;;;;6.32;2.60;;;;;;;-0.16;96.14;96821.63;4942660;28;20035;-61
2021/11/30 04:15:55;;;;;;;5.07;2.78;;;;;;;-0.14;95.54;96822.94;4948790;28;20035;-63
2021/11/30 04:18:21;;;;;;;3.45;2.60;;;;;;;-0.20;94.92;96811.47;4935866;28;20059;-61
2021/11/30 04:20:46;;;;;;;5.22;2.58;;;;;;;-0.17;93.22;96807.38;4942055;28;20055;-62
2021/11/30 04:23:12;;;;;;;5.43;2.78;;;;;;;-0.13;92.78;96815.66;4931150;29;20128;-62
2021/11/30 04:25:37;;;;;;;3.80;2.30;;;;;;;-0.13;92.70;96826.44;4947591;28;20078;-60
2021/11/30 04:28:03;;;;;;;6.53;2.70;;;;;;;-0.25;94.04;96824.22;4952884;28;20038;-61
2021/11/30 04:30:29;;;;;;;8.13;2.38;;;;;;;-0.26;93.25;96830.66;4942096;28;20039;-61
2021/11/30 04:32:54;;;;;;;5.47;2.33;;;;;;;-0.24;93.52;96833.88;4946550;28;20098;-60
2021/11/30 04:35:20;;;;;;;10.35;2.40;;;;;;;-0.18;92.38;96821.13;4945668;28;20045;-59
2021/11/30 04:37:46;;;;;;;4.20;2.28;;;;;;;-0.17;92.98;96828.13;4939803;28;20051;-61
2021/11/30 04:40:14;;;;;;;6.57;2.50;;;;;;;-0.11;93.21;96829.63;4934281;28;20059;-61
2021/11/30 04:42:42;;;;;;;4.38;2.60;;;;;;;-0.26;93.88;96836.06;4947919;28;20043;-61
2021/11/30 04:45:18;;;;;;;9.43;3.33;;;;;;;-0.23;92.62;96825.50;4928994;28;20042;-60
2021/11/30 04:47:44;;;;;;;4.10;2.40;;;;;;;-0.27;92.99;96810.22;4947673;28;20035;-62
2021/11/30 04:50:22;;;;;;;4.10;2.47;;;;;;;-0.28;92.95;96803.25;4945441;28;20419;-62
2021/11/30 04:52:49;;;;;;;4.38;2.20;;;;;;;-0.27;92.19;96821.00;4938941;28;20051;-61
2021/11/30 04:55:22;;;;;;;5.32;2.60;;;;;;;-0.25;92.47;96833.06;4947892;28;20134;-60
2021/11/30 04:57:51;;;;;;;2.97;2.20;;;;;;;-0.21;91.98;96817.94;4951061;28;20114;-58
2021/11/30 05:00:17;;;;;;;3.25;2.15;;;;;;;-0.21;91.89;96836.78;4940414;28;20070;-62
2021/11/30 05:02:42;;;;;;;5.00;2.50;;;;;;;-0.29;92.00;96842.00;4949150;28;20095;-61
2021/11/30 05:05:12;;;;;;;5.13;2.60;;;;;;;-0.33;93.15;96835.63;4936627;29;20043;-62
2021/11/30 05:07:38;;;;;;;4.70;2.70;;;;;;;-0.28;91.70;96828.28;4945841;28;20463;-61
2021/11/30 05:10:03;;;;;;;5.25;2.42;;;;;;;-0.20;92.14;96841.06;4951104;28;20086;-62
2021/11/30 05:12:29;;;;;;;4.22;2.60;;;;;;;-0.24;92.63;96834.66;4944956;29;20498;-61
2021/11/30 05:14:55;;;;;;;9.15;2.85;;;;;;;-0.30;93.04;96832.34;4943092;28;20043;-59
2021/11/30 05:17:20;;;;;;;6.35;3.35;;;;;;;-0.22;92.98;96831.69;4941799;28;20042;-62
2021/11/30 05:19:45;;;;;;;4.05;3.17;;;;;;;-0.21;92.54;96820.63;4960533;28;20085;-62
2021/11/30 05:22:12;;;;;;;5.53;2.35;;;;;;;-0.22;92.10;96840.56;4950090;28;20166;-59
2021/11/30 05:24:37;;;;;;;4.95;2.50;;;;;;;-0.17;92.87;96828.13;4945253;28;20040;-62
2021/11/30 05:27:04;;;;;;;5.07;2.97;;;;;;;-0.14;91.32;96825.63;4942588;28;20039;-62
2021/11/30 05:29:29;;;;;;;6.03;2.33;;;;;;;-0.13;90.94;96842.59;4923268;29;20721;-60
2021/11/30 05:31:55;;;;;;;3.33;2.10;;;;;;;-0.14;90.44;96819.47;4943176;29;20110;-61
2021/11/30 05:34:20;;;;;;;4.47;2.05;;;;;;;-0.15;90.27;96815.16;4942138;28;20046;-62
2021/11/30 05:36:45;;;;;;;3.13;2.10;;;;;;;-0.16;90.32;96827.00;4944612;28;20047;-62
2021/11/30 05:39:11;;;;;;;4.05;2.53;;;;;;;-0.15;89.31;96807.09;4937958;29;20055;-62
2021/11/30 05:41:36;;;;;;;7.65;2.22;;;;;;;-0.16;88.84;96808.16;4945426;28;20043;-62
2021/11/30 05:44:02;;;;;;;3.38;2.42;;;;;;;-0.16;89.07;96825.13;4946580;28;20066;-61
2021/11/30 05:46:27;;;;;;;5.05;2.30;;;;;;;-0.24;90.16;96836.56;4938322;28;20547;-62
2021/11/30 05:48:53;;;;;;;4.00;2.22;;;;;;;-0.26;89.83;96834.16;4926701;29;20078;-60
2021/11/30 05:51:18;;;;;;;6.65;2.60;;;;;;;-0.23;89.80;96833.56;4942872;28;20095;-62
2021/11/30 05:53:44;;;;;;;3.85;1.85;;;;;;;-0.16;88.06;96841.28;4941654;29;20055;-61
2021/11/30 05:56:10;;;;;;;5.10;2.22;;;;;;;-0.20;88.19;96829.50;4938422;28;20098;-61
2021/11/30 05:58:39;;;;;;;3.35;2.42;;;;;;;-0.20;88.91;96838.38;4944915;28;20139;-62
2021/11/30 06:01:09;;;;;;;6.88;2.30;;;;;;;-0.15;88.09;96823.25;4940322;28;20043;-61
2021/11/30 06:03:56;;;;;;;5.32;2.75;;;;;;;-0.21;88.58;96839.47;4943139;28;20774;-62
2021/11/30 06:06:21;;;;;;;3.15;2.22;;;;;;;-0.22;88.48;96840.56;4946430;28;20112;-61
2021/11/30 06:08:46;;;;;;;8.63;3.00;;;;;;;-0.21;88.50;96834.09;4954075;28;20485;-61
2021/11/30 06:11:12;;;;;;;3.17;2.65;;;;;;;-0.17;87.83;96828.91;4940661;28;20492;-61
2021/11/30 06:13:37;;;;;;;5.32;2.70;;;;;;;-0.17;87.53;96826.22;4948829;28;20047;-61
2021/11/30 06:16:03;;;;;;;5.75;3.03;;;;;;;-0.18;87.57;96807.66;4921035;28;20050;-60
2021/11/30 06:18:29;;;;;;;4.63;2.25;;;;;;;-0.15;87.79;96815.94;4942449;29;20575;-62
2021/11/30 06:20:54;;;;;;;3.47;2.55;;;;;;;-0.18;87.11;96811.19;4942548;28;20050;-62
2021/11/30 06:23:20;;;;;;;4.78;2.38;;;;;;;-0.09;86.14;96827.44;4945677;28;20035;-61
2021/11/30 06:25:46;;;;;;;10.13;3.20;;;;;;;-0.19;87.82;96825.72;4951215;28;20134;-61
2021/11/30 06:28:11;;;;;;;5.40;2.83;;;;;;;-0.17;85.67;96818.13;4938491;28;20124;-62
2021/11/30 06:30:37;;;;;;;4.03;2.30;;;;;;;-0.13;85.07;96821.03;4930152;29;20135;-62
2021/11/30 06:33:02;;;;;;;4.72;2.78;;;;;;;-0.18;86.72;96819.25;4941564;28;20047;-62
2021/11/30 06:35:28;;;;;;;5.68;2.53;;;;;;;-0.24;86.18;96812.34;4940229;29;20122;-63
2021/11/30 06:37:53;;;;;;;4.43;2.50;;;;;;;-0.15;86.58;96805.19;4944684;28;20500;-63
2021/11/30 06:40:19;;;;;;;4.72;3.05;;;;;;;-0.16;87.48;96816.25;4939906;28;20047;-62
2021/11/30 06:42:45;;;;;;;5.90;2.30;;;;;;;-0.26;87.56;96815.31;4950111;28;20129;-63
2021/11/30 06:45:10;;;;;;;6.70;2.55;;;;;;;-0.24;86.97;96815.81;4936541;28;20070;-62
2021/11/30 06:47:37;;;;;;;6.20;2.92;;;;;;;-0.27;86.31;96812.91;4947038;28;20475;-61
2021/11/30 06:50:04;;;;;;;4.07;2.85;;;;;;;-0.21;85.78;96814.44;4937651;28;20051;-62
2021/11/30 06:52:29;;;;;;;3.80;2.63;;;;;;;-0.17;85.25;96812.75;4941614;29;20043;-61
2021/11/30 06:54:55;;;;;;;4.55;3.00;;;;;;;-0.03;84.38;96813.59;4941737;29;20035;-61
2021/11/30 06:57:22;;;;;;;4.35;2.75;;;;;;;-0.20;84.72;96819.53;4938843;28;20039;-61
2021/11/30 06:59:48;;;;;;;5.40;3.03;;;;;;;-0.17;84.08;96804.69;4943346;28;20039;-60
2021/11/30 07:02:14;;;;;;;4.82;2.80;;;;;;;-0.19;85.41;96804.19;4921102;28;20047;-59
2021/11/30 07:04:43;;;;;;;6.47;2.38;;;;;;;-0.16;84.76;96819.75;4940605;28;20047;-61
2021/11/30 07:09:57;;;;;;;4.68;2.40;;;;;;;-0.11;85.44;96818.84;4943217;28;20174;-63
2021/11/30 07:12:49;;;;;;;5.50;3.00;;;;;;;-0.14;85.92;96806.00;4916247;29;20062;-63
2021/11/30 07:15:11;;;;;;;5.63;3.38;;;;;;;-0.07;85.05;96814.50;4935999;29;20039;-62
2021/11/30 07:17:38;;;;;;;9.50;3.10;;;;;;;-0.07;84.41;96817.97;4942391;28;20039;-60
2021/11/30 07:20:05;;;;;;;3.90;2.83;;;;;;;-0.11;84.71;96832.31;4942342;28;20138;-62
2021/11/30 07:22:31;;;;;;;8.00;3.10;;;;;;;-0.02;84.04;96831.38;4945940;28;20046;-62
2021/11/30 07:24:57;;;;;;;5.50;2.50;;;;;;;-0.06;84.37;96824.94;4928957;29;20101;-61
2021/11/30 07:27:23;;;;;;;6.47;2.95;;;;;;;-0.04;83.84;96816.59;4937213;28;20744;-62
2021/11/30 07:29:48;;;;;;;7.55;2.60;;;;;;;0.06;84.53;96818.31;4946529;28;20043;-62
2021/11/30 07:32:14;;;;;;;4.82;2.63;;;;;;;0.05;84.15;96814.00;4937256;28;20043;-62
2021/11/30 07:34:40;;;;;;;5.63;3.10;;;;;;;0.08;83.68;96824.22;4946092;28;20063;-61
2021/11/30 07:37:06;;;;;;;5.00;3.05;;;;;;;0.09;83.47;96823.91;4937960;28;20047;-60
2021/11/30 07:39:32;;;;;;;6.72;3.58;;;;;;;0.32;82.65;96821.34;4945162;28;20039;-61
2021/11/30 07:41:58;;;;;;;6.97;3.42;;;;;;;0.22;84.13;96819.66;4940086;28;20592;-62
2021/11/30 07:44:23;;;;;;;3.53;2.30;;;;;;;0.30;81.08;96824.34;4938081;28;20204;-61
2021/11/30 07:46:49;;;;;;;3.30;2.22;;;;;;;0.36;80.35;96822.34;4941953;28;20396;-61
2021/11/30 07:49:14;;;;;;;6.00;2.67;;;;;;;0.30;80.58;96823.53;4914444;28;20142;-61
2021/11/30 07:51:40;;;;;;;4.45;2.97;;;;;;;0.25;82.81;96823.63;4942530;28;20140;-62
2021/11/30 07:54:06;;;;;;;3.13;2.80;;;;;;;0.30;82.37;96827.03;4938937;28;20043;-61
2021/11/30 07:56:32;;;;;;;4.80;2.13;;;;;;;0.28;80.31;96807.69;4946889;28;20043;-61
2021/11/30 07:58:59;;;;;;;5.43;2.83;;;;;;;0.09;82.58;96815.84;4937546;29;20110;-63
2021/11/30 08:01:25;;;;;;;10.00;2.88;;;;;;;0.20;82.54;96811.06;4928399;29;20134;-63
2021/11/30 08:03:50;;;;;;;7.50;2.67;;;;;;;0.18;81.68;96811.38;4948881;28;20050;-63
2021/11/30 08:06:16;;;;;;;3.63;2.50;;;;;;;0.23;80.30;96817.75;4945858;28;20058;-62
2021/11/30 08:08:41;;;;;;;6.35;2.85;;;;;;;0.21;81.94;96806.47;4960567;28;20047;-63
2021/11/30 08:11:08;;;;;;;7.53;2.80;;;;;;;0.16;81.87;96823.50;4941889;28;21375;-61
2021/11/30 08:13:33;;;;;;;2.60;2.28;;;;;;;0.29;80.58;96817.38;4949333;28;20129;-62
2021/11/30 08:15:58;;;;;;;3.33;2.33;;;;;;;0.07;81.68;96799.16;4950980;28;20043;-63
2021/11/30 08:18:24;;;;;;;8.77;2.40;;;;;;;0.14;81.82;96818.41;4946272;28;20081;-62
2021/11/30 08:20:49;;;;;;;4.03;2.35;;;;;;;0.20;82.95;96824.53;4951033;28;20043;-64
2021/11/30 08:23:15;;;;;;;4.85;2.50;;;;;;;0.16;81.13;96812.75;4945739;28;20057;-63
2021/11/30 08:25:42;;;;;;;9.95;2.28;;;;;;;0.25;81.08;96823.63;4949556;28;20046;-63
2021/11/30 08:28:08;;;;;;;5.45;2.45;;;;;;;0.23;82.05;96828.53;4946311;28;20043;-62
2021/11/30 08:30:34;;;;;;;4.38;2.25;;;;;;;0.14;82.18;96823.00;4950795;28;20035;-61
2021/11/30 08:33:00;;;;;;;8.73;4.00;;;;;;;0.10;84.01;96814.72;4953720;28;20054;-63
2021/11/30 08:35:25;;;;;;;4.00;2.13;;;;;;;0.16;82.14;96815.44;4949483;28;20475;-62
2021/11/30 08:37:50;;;;;;;4.03;2.17;;;;;;;0.03;84.61;96819.69;4955773;28;20042;-62
2021/11/30 08:40:16;;;;;;;5.30;2.63;;;;;;;-0.09;85.25;96814.78;4949183;28;20039;-62
2021/11/30 08:42:42;;;;;;;7.22;2.33;;;;;;;-0.07;85.61;96804.53;4933240;28;20372;-63
2021/11/30 08:45:09;;;;;;;6.22;2.10;;;;;;;-0.09;84.09;96803.19;4940128;28;20063;-63
2021/11/30 08:47:36;;;;;;;4.38;2.47;;;;;;;-0.08;85.13;96802.91;4952030;28;20050;-62
2021/11/30 08:50:06;;;;;;;3.20;2.00;;;;;;;0.06;83.95;96807.56;4952790;28;20142;-62
2021/11/30 08:52:31;;;;;;;6.90;2.72;;;;;;;-0.14;84.46;96798.72;4950044;28;20590;-62
2021/11/30 08:54:57;;;;;;;6.07;2.38;;;;;;;-0.02;84.05;96793.66;4944221;28;20133;-63
2021/11/30 08:57:25;;;;;;;6.25;2.30;;;;;;;0.00;85.27;96801.44;4949035;28;20704;-63
2021/11/30 08:59:51;;;;;;;4.07;2.05;;;;;;;0.02;84.49;96801.13;4936334;28;20045;-64
2021/11/30 09:02:18;;;;;;;6.65;2.38;;;;;;;0.12;82.69;96796.38;4948878;28;20043;-63
2021/11/30 09:04:44;;;;;;;6.03;2.20;;;;;;;0.14;81.19;96809.53;4945338;29;20047;-64
2021/11/30 09:07:09;;;;;;;4.43;2.42;;;;;;;0.15;81.88;96808.47;4938148;28;20887;-63
2021/11/30 09:09:35;;;;;;;4.28;2.35;;;;;;;0.18;81.42;96815.94;4944188;28;20451;-61
2021/11/30 09:12:00;;;;;;;4.40;2.20;;;;;;;0.09;82.10;96804.25;4944277;28;20123;-62
2021/11/30 09:14:27;;;;;;;5.80;2.28;;;;;;;0.17;82.29;96801.66;4944485;28;20051;-63
2021/11/30 09:16:55;;;;;;;5.05;2.38;;;;;;;0.17;82.61;96796.28;4943765;28;20110;-63
2021/11/30 09:19:21;;;;;;;5.28;2.30;;;;;;;0.26;80.52;96792.91;4948250;29;20079;-63
2021/11/30 09:21:47;;;;;;;5.32;2.53;;;;;;;0.17;82.80;96790.91;4945778;29;20054;-62
2021/11/30 09:24:14;;;;;;;5.45;2.25;;;;;;;0.06;84.89;96794.09;4938142;29;20043;-61
2021/11/30 09:26:39;;;;;;;4.93;2.40;;;;;;;-0.01;85.15;96789.06;4942378;28;20571;-64
2021/11/30 09:29:06;;;;;;;3.63;2.45;;;;;;;-0.05;86.66;96788.06;4938574;29;20043;-63
2021/11/30 09:31:31;;;;;;;5.70;2.42;;;;;;;0.02;86.11;96772.34;4945563;29;20051;-63
2021/11/30 09:34:01;;;;;;;3.67;1.92;;;;;;;0.10;83.97;96792.38;4944620;29;20443;-63
2021/11/30 09:36:26;;;;;;;4.50;2.80;;;;;;;0.02;85.52;96790.38;4930654;28;20459;-64
2021/11/30 09:38:52;;;;;;;5.40;2.38;;;;;;;0.10;84.78;96798.56;4941371;29;20048;-64
2021/11/30 09:41:17;;;;;;;6.55;3.40;;;;;;;0.13;85.65;96779.13;4937991;28;20043;-63
2021/11/30 09:43:43;;;;;;;4.68;2.88;;;;;;;0.14;84.22;96790.69;4944005;29;20047;-64
2021/11/30 09:46:09;;;;;;;4.57;2.55;;;;;;;0.17;84.32;96790.91;4941319;28;20090;-65
2021/11/30 09:48:35;;;;;;;3.67;2.40;;;;;;;0.33;82.31;96783.34;4954405;29;20103;-67
2021/11/30 09:51:01;;;;;;;6.20;2.60;;;;;;;0.29;83.98;96781.53;4940271;29;20074;-63
2021/11/30 09:53:29;;;;;;;4.45;2.80;;;;;;;0.32;83.66;96762.88;4939604;29;20051;-62
2021/11/30 09:55:58;;;;;;;5.57;3.00;;;;;;;0.27;83.23;96770.25;4944342;29;20119;-63
2021/11/30 09:58:25;;;;;;;8.32;2.28;;;;;;;0.44;80.50;96765.09;4938623;28;20534;-61
2021/11/30 10:00:54;;;;;;;3.05;2.13;;;;;;;0.44;80.40;96759.69;4948633;28;20053;-60
2021/11/30 10:03:23;;;;;;;9.77;2.97;;;;;;;0.45;80.68;96752.41;4935854;29;20047;-61
2021/11/30 10:05:49;;;;;;;3.72;2.40;;;;;;;0.48;78.79;96741.81;4942984;29;20523;-60
2021/11/30 10:08:35;;;;;;;3.70;2.30;;;;;;;0.46;80.36;96717.06;4938226;28;20058;-62
2021/11/30 10:11:03;;;;;;;3.75;2.55;;;;;;;0.51;80.60;96743.91;4940666;29;20146;-62
2021/11/30 10:13:29;;;;;;;4.18;2.83;;;;;;;0.48;80.83;96725.66;4939406;29;20047;-61
2021/11/30 10:16:01;;;;;;;4.70;2.30;;;;;;;0.65;81.01;96719.66;4942190;28;20156;-62
2021/11/30 10:18:30;;;;;;;12.90;2.55;;;;;;;0.62;76.95;96720.25;4938195;29;20060;-62
2021/11/30 10:21:23;;;;;;;5.45;2.95;;;;;;;0.63;77.92;96727.25;4944630;29;20144;-60
2021/11/30 10:24:06;;;;;;;4.13;2.38;;;;;;;0.64;78.65;96734.22;4943684;29;20047;-60
2021/11/30 10:26:35;;;;;;;4.88;2.40;;;;;;;0.72;77.12;96719.22;4940298;28;20047;-60
2021/11/30 10:29:28;;;;;;;5.70;2.33;;;;;;;0.71;78.45;96723.84;4944211;29;20548;-61
2021/11/30 10:31:55;;;;;;;3.03;1.90;;;;;;;0.67;78.05;96724.75;4938358;29;20484;-62
2021/11/30 10:34:25;;;;;;;4.38;2.60;;;;;;;0.69;77.11;96715.25;4937344;29;20067;-62
2021/11/30 10:36:58;;;;;;;;;;;;;;;0.69;76.25;96712.56;4942335;28;20047;-61
2021/11/30 10:39:35;;;;;;;6.60;2.25;;;;;;;0.71;78.19;96718.44;4935534;29;19919;-61
2021/11/30 10:42:22;;;;;;;3.47;2.10;;;;;;;0.83;77.12;96698.25;4942628;29;20377;-61
2021/11/30 10:44:51;;;;;;;6.00;2.30;;;;;;;0.90;77.23;96710.22;4942665;29;20070;-62
2021/11/30 10:47:27;;;;;;;5.57;2.20;;;;;;;0.99;75.36;96698.69;4935145;28;20057;-63
2021/11/30 10:50:05;;;;;;;5.75;2.38;;;;;;;0.89;75.85;96705.91;4933353;29;20111;-63
2021/11/30 10:52:33;;;;;;;1.77;1.60;;;;;;;1.09;72.94;96701.19;4934040;29;20111;-61
2021/11/30 10:55:06;;;;;;;3.00;2.00;;;;;;;1.01;74.43;96694.63;4942862;29;20039;-63
2021/11/30 10:57:32;;;;;;;1.35;1.13;;;;;;;1.15;72.49;96689.16;4922667;29;20062;-62
2021/11/30 11:00:33;;;;;;;3.95;2.05;;;;;;;1.14;73.35;96691.06;4950573;28;20049;-60
2021/11/30 11:05:31;;;;;;;5.18;2.08;;;;;;;1.14;73.83;96692.97;4928060;28;20051;-60
2021/11/30 11:08:22;;;;;;;4.82;2.13;;;;;;;1.08;74.05;96700.38;4942074;28;20055;-61
2021/11/30 11:10:55;;;;;;;3.83;2.33;;;;;;;1.04;74.53;96693.19;4928604;29;20039;-61
2021/11/30 11:13:23;;;;;;;8.73;2.50;;;;;;;1.02;74.07;96685.41;4948869;29;20133;-61
2021/11/30 11:15:51;;;;;;;4.95;2.35;;;;;;;1.11;74.98;96683.56;4941008;29;20619;-62
2021/11/30 11:18:38;;;;;;;5.00;1.83;;;;;;;1.28;72.60;96682.91;4936815;28;20062;-61
2021/11/30 11:21:33;;;;;;;3.83;2.28;;;;;;;1.19;73.22;96679.38;4939036;29;20043;-64
2021/11/30 11:24:01;;;;;;;4.30;2.58;;;;;;;1.08;74.78;96669.91;4934307;29;20584;-62
2021/11/30 11:26:29;;;;;;;3.53;2.25;;;;;;;1.16;75.49;96681.88;4935356;28;20058;-62
2021/11/30 11:28:57;;;;;;;3.60;2.53;;;;;;;1.18;75.97;96683.16;4941312;29;20591;-60
2021/11/30 11:31:24;;;;;;;4.63;2.22;;;;;;;1.12;77.13;96679.00;4935220;29;20059;-59
2021/11/30 11:33:51;;;;;;;8.35;3.05;;;;;;;1.14;77.83;96684.88;4942264;29;20085;-61
2021/11/30 11:36:17;;;;;;;5.35;2.55;;;;;;;1.04;78.31;96685.09;4918401;29;20063;-63
2021/11/30 11:38:42;;;;;;;9.15;3.08;;;;;;;1.01;79.27;96691.91;4939296;29;20496;-63
2021/11/30 11:41:09;;;;;;;7.30;3.00;;;;;;;1.08;79.27;96670.72;4936691;29;20053;-63
2021/11/30 11:43:39;;;;;;;5.40;2.42;;;;;;;1.27;78.80;96672.44;4942098;29;20039;-61
2021/11/30 11:46:13;;;;;;;5.45;2.10;;;;;;;1.06;78.30;96672.09;4935846;29;20078;-63
2021/11/30 11:48:40;;;;;;;3.30;2.25;;;;;;;1.03;77.37;96670.03;4941280;29;20050;-60
2021/11/30 11:51:07;;;;;;;4.22;2.17;;;;;;;1.07;78.47;96671.81;4935058;29;20106;-62